Flight Track Log - Related Links

Times and Time Zones

All times are in EDT time to prevent confusion due to time zone crossing. See the SWA118 flight status page for this flight to view local times or setup timezone preferences in your user account.

Time Position Orientation Groundspeed Altitude Reporting Facility
EDT Latitude Longitude Course Direction KTS MPH feet Rate Location/Type
Wed 03:21:47 PM 29.6356 -95.2675 103° East 151 174 700  Level Houston Center
Wed 03:22:12 PM 29.6314 -95.2464 103° East 160 184 1,600 2,000 Climbing Houston Center
Wed 03:23:11 PM 29.6858 -95.2369 North 266 306 3,500 2,132 Climbing Houston Center
Wed 03:24:13 PM 29.7600 -95.2664 341° North 275 316 5,900 2,565 Climbing Houston Center
Wed 03:25:15 PM 29.8314 -95.3183 328° Northwest 298 343 8,800 2,419 Climbing Houston Center
Wed 03:26:17 PM 29.9119 -95.3658 333° Northwest 329 379 10,900 1,984 Climbing Houston Center
Wed 03:27:19 PM 30.0128 -95.3278 18° North 371 427 12,900 2,468 Climbing Houston Center
Wed 03:28:21 PM 30.1353 -95.2658 24° Northeast 394 453 16,000 2,613 Climbing Houston Center
Wed 03:29:23 PM 30.2400 -95.2100 25° Northeast 407 468 18,300 2,208 Climbing Houston Center
Wed 03:30:26 PM 30.3486 -95.1539 24° Northeast 420 483 20,600 1,920 Climbing Houston Center
Wed 03:31:28 PM 30.4572 -95.0931 26° Northeast 437 503 22,300 1,645 Climbing Houston Center
Wed 03:32:30 PM 30.5739 -95.0308 25° Northeast 459 528 24,000 1,887 Climbing Houston Center
Wed 03:33:32 PM 30.7181 -94.9550 24° Northeast 470 541 26,200 1,790 Climbing Houston Center
Wed 03:34:34 PM 30.8397 -94.8889 25° Northeast 478 550 27,700 1,345 Climbing Houston Center
Wed 03:35:28 PM 30.9408 -94.8364 24° Northeast 468 539 28,800 1,381 Climbing Fort Worth Center
Wed 03:36:27 PM 31.0625 -94.7700 25° Northeast 474 545 30,300 1,563 Climbing Fort Worth Center
Wed 03:37:27 PM 31.1906 -94.7033 24° Northeast 485 558 31,900 1,686 Climbing Fort Worth Center
Wed 03:38:28 PM 31.3036 -94.6197 32° Northeast 485 558 33,700 1,550 Climbing Fort Worth Center
Wed 03:39:27 PM 31.4331 -94.5356 29° Northeast 485 558 35,000 655 Climbing Fort Worth Center
Wed 03:40:27 PM 31.5508 -94.4808 22° Northeast 470 541 35,000  Level Fort Worth Center
Wed 03:41:27 PM 31.6686 -94.4208 23° Northeast 457 526 35,000  Level Fort Worth Center
Wed 03:42:27 PM 31.7839 -94.3633 23° Northeast 452 520 35,000  Level Fort Worth Center
Wed 03:43:27 PM 31.9036 -94.3056 22° Northeast 452 520 35,000  Level Fort Worth Center
Wed 03:44:28 PM 32.0211 -94.2478 23° Northeast 452 520 35,000  Level Fort Worth Center
Wed 03:45:27 PM 32.1408 -94.1872 23° Northeast 452 520 35,000  Level Fort Worth Center
Wed 03:46:27 PM 32.2436 -94.1269 26° Northeast 452 520 35,000  Level Fort Worth Center
Wed 03:47:28 PM 32.3631 -94.0686 22° Northeast 452 520 35,000  Level Fort Worth Center
Wed 03:48:27 PM 32.4825 -94.0075 23° Northeast 452 520 35,000  Level Fort Worth Center
Wed 03:49:27 PM 32.6019 -93.9461 23° Northeast 452 520 35,000  Level Fort Worth Center
Wed 03:50:28 PM 32.7233 -93.8872 22° Northeast 452 520 35,000  Level Fort Worth Center
Wed 03:51:27 PM 32.8428 -93.8233 24° Northeast 457 526 35,000  Level Fort Worth Center
Wed 03:53:53 PM 33.1375 -93.6742 23° Northeast 475 547 35,000  Level Memphis Center
Wed 03:54:53 PM 33.2600 -93.6117 23° Northeast 475 547 35,000  Level Memphis Center
Wed 03:55:53 PM 33.3806 -93.5489 23° Northeast 475 547 35,000  Level Memphis Center
Wed 03:56:53 PM 33.5181 -93.4792 23° Northeast 480 552 35,000  Level Memphis Center
Wed 03:57:53 PM 33.6408 -93.4161 23° Northeast 480 552 35,000  Level Memphis Center
Wed 03:59:53 PM 33.8858 -93.2897 23° Northeast 480 552 35,000  Level Memphis Center
Wed 04:00:53 PM 34.0083 -93.2236 24° Northeast 480 552 35,000  Level Memphis Center
Wed 04:01:53 PM 34.1289 -93.1600 24° Northeast 480 552 35,000  Level Memphis Center
Wed 04:02:53 PM 34.2556 -93.0961 23° Northeast 480 552 35,000  Level Memphis Center
Wed 04:03:53 PM 34.3758 -93.0272 25° Northeast 480 552 35,000  Level Memphis Center
Wed 04:04:53 PM 34.5003 -92.9606 24° Northeast 480 552 35,000  Level Memphis Center
Wed 04:05:53 PM 34.6250 -92.8936 24° Northeast 480 552 35,000  Level Memphis Center
Wed 04:06:53 PM 34.7472 -92.8289 24° Northeast 480 552 35,000  Level Memphis Center
Wed 04:07:53 PM 34.8717 -92.7617 24° Northeast 485 558 35,000  Level Memphis Center
Wed 04:08:53 PM 34.9981 -92.6917 24° Northeast 485 558 35,000  Level Memphis Center
Wed 04:09:53 PM 35.1203 -92.6242 24° Northeast 485 558 35,000  Level Memphis Center
Wed 04:10:53 PM 35.2447 -92.5536 25° Northeast 485 558 35,000  Level Memphis Center
Wed 04:11:53 PM 35.3583 -92.4956 23° Northeast 490 564 35,000  Level Memphis Center
Wed 04:12:53 PM 35.4806 -92.4300 24° Northeast 485 558 35,000  Level Memphis Center
Wed 04:13:53 PM 35.6047 -92.3614 24° Northeast 485 558 35,000  Level Memphis Center
Wed 04:14:53 PM 35.7267 -92.2953 24° Northeast 485 558 35,000  Level Memphis Center
Wed 04:15:53 PM 35.8486 -92.2264 25° Northeast 485 558 35,000  Level Memphis Center
Wed 04:16:53 PM 35.9706 -92.1575 25° Northeast 480 552 35,000  Level Memphis Center
Wed 04:17:53 PM 36.0925 -92.0908 24° Northeast 480 552 35,000  Level Memphis Center
Wed 04:18:53 PM 36.2164 -92.0239 24° Northeast 480 552 35,000  Level Memphis Center
Wed 04:19:53 PM 36.3361 -91.9542 25° Northeast 480 552 35,000  Level Memphis Center
Wed 04:20:53 PM 36.4600 -91.8869 24° Northeast 480 552 35,000  Level Memphis Center
Wed 04:22:40 PM 36.6906 -91.7522 25° Northeast 484 557 35,000  Level Kansas City Center
Wed 04:23:41 PM 36.8119 -91.6822 25° Northeast 481 554 35,000  Level Kansas City Center
Wed 04:24:44 PM 36.9300 -91.6197 23° Northeast 466 536 35,000  Level Kansas City Center
Wed 04:25:45 PM 37.0503 -91.5492 25° Northeast 472 543 35,000  Level Kansas City Center
Wed 04:26:46 PM 37.1694 -91.4808 25° Northeast 472 543 35,000  Level Kansas City Center
Wed 04:27:50 PM 37.2894 -91.4114 25° Northeast 473 544 35,000  Level Kansas City Center
Wed 04:28:52 PM 37.4325 -91.3281 25° Northeast 473 544 35,000  Level Kansas City Center
Wed 04:29:55 PM 37.5544 -91.2575 25° Northeast 477 549 35,000  Level Kansas City Center
Wed 04:30:57 PM 37.6736 -91.1869 25° Northeast 477 549 35,000  Level Kansas City Center
Wed 04:31:58 PM 37.7933 -91.1158 25° Northeast 476 548 35,000  Level Kansas City Center
Wed 04:33:00 PM 37.9133 -91.0456 25° Northeast 477 549 35,000  Level Kansas City Center
Wed 04:34:03 PM 38.0256 -90.9650 29° Northeast 471 542 35,000  Level Kansas City Center
Wed 04:35:04 PM 38.1297 -90.8803 33° Northeast 448 516 35,000  Level Kansas City Center
Wed 04:36:08 PM 38.2583 -90.7825 31° Northeast 450 518 35,000  Level Kansas City Center
Wed 04:37:09 PM 38.3653 -90.7000 31° Northeast 449 517 35,000  Level Kansas City Center
Wed 04:38:11 PM 38.4794 -90.6372 23° Northeast 456 525 35,000  Level Kansas City Center
Wed 04:39:11 PM 38.6003 -90.6172 North 462 532 35,000 -48 Level Kansas City Center
Wed 04:40:16 PM 38.7158 -90.5592 21° North 448 516 34,900 -952 Descending Kansas City Center
Wed 04:41:17 PM 38.8522 -90.4892 22° Northeast 440 506 33,000 -934 Descending Kansas City Center
Wed 04:42:18 PM 38.9514 -90.4889 360° North 420 483 33,000  Level Kansas City Center
Wed 04:43:20 PM 39.0639 -90.4486 16° North 426 490 33,000  Level Kansas City Center
Wed 04:44:22 PM 39.1947 -90.3906 19° North 424 488 33,000  Level Kansas City Center
Wed 04:45:24 PM 39.2439 -90.5092 298° West 415 478 33,000  Level Kansas City Center
Wed 04:46:28 PM 39.1528 -90.5706 208° Southwest 405 466 33,000  Level Kansas City Center
Wed 04:47:29 PM 39.0489 -90.5411 168° South 386 444 33,000  Level Kansas City Center
Wed 04:48:30 PM 38.9283 -90.5022 166° South 384 442 33,000  Level Kansas City Center
Wed 04:49:34 PM 38.8264 -90.4722 167° South 377 434 33,000  Level Kansas City Center
Wed 04:50:35 PM 38.7633 -90.3678 128° Southeast 402 463 33,000  Level Kansas City Center
Wed 04:51:35 PM 38.8181 -90.2528 59° Northeast 407 468 33,000  Level Kansas City Center
Wed 04:52:40 PM 38.8933 -90.1419 49° Northeast 409 471 33,000  Level Kansas City Center
Wed 04:53:40 PM 39.0069 -90.1039 15° North 413 475 33,000  Level Kansas City Center
Wed 04:54:43 PM 39.1192 -90.0975 North 409 471 33,000  Level Kansas City Center
Wed 04:55:44 PM 39.2136 -90.1567 334° Northwest 406 467 33,000  Level Kansas City Center
Wed 04:56:48 PM 39.1883 -90.3092 258° West 400 460 33,000  Level Kansas City Center
Wed 04:57:49 PM 39.0883 -90.3644 203° Southwest 394 453 33,000  Level Kansas City Center
Wed 04:58:52 PM 38.9872 -90.4181 202° Southwest 396 456 33,000  Level Kansas City Center
Wed 04:59:54 PM 38.8875 -90.4672 201° Southwest 391 450 33,000  Level Kansas City Center
Wed 05:00:55 PM 38.7836 -90.4739 183° South 388 447 33,000  Level Kansas City Center
Wed 05:01:56 PM 38.7481 -90.3256 107° East 399 459 33,000  Level Kansas City Center
Wed 05:03:00 PM 38.8456 -90.2472 32° Northeast 413 475 33,000  Level Kansas City Center
Wed 05:04:01 PM 38.9553 -90.1897 22° Northeast 417 480 33,000  Level Kansas City Center
Wed 05:05:04 PM 39.0625 -90.1311 23° Northeast 419 482 33,000  Level Kansas City Center
Wed 05:06:05 PM 39.1728 -90.1117 North 421 484 33,000  Level Kansas City Center
Wed 05:07:07 PM 39.2247 -90.2283 300° West 411 473 33,000  Level Kansas City Center
Wed 05:08:10 PM 39.1542 -90.3294 228° Southwest 403 464 33,000  Level Kansas City Center
Wed 05:09:11 PM 39.0308 -90.3939 202° Southwest 398 458 33,000  Level Kansas City Center
Wed 05:10:12 PM 38.9311 -90.3450 159° South 393 452 33,000  Level Kansas City Center
Wed 05:11:16 PM 38.9178 -90.2089 97° East 394 453 33,000  Level Kansas City Center
Wed 05:12:17 PM 38.9178 -90.0658 90° East 398 458 33,000  Level Kansas City Center
Wed 05:13:18 PM 38.9183 -89.9194 90° East 407 468 33,000  Level Kansas City Center
Wed 05:14:22 PM 38.9214 -89.7500 89° East 421 484 33,000  Level Kansas City Center
Wed 05:15:23 PM 38.9206 -89.5778 90° East 441 507 33,000 -1,475 Level Kansas City Center
Wed 05:16:24 PM 38.9211 -89.4169 90° East 447 514 30,000 -2,371 Descending Kansas City Center
Wed 05:17:27 PM 38.9208 -89.2417 90° East 485 558 28,100 -1,536 Descending Kansas City Center
Wed 05:18:29 PM 38.9206 -89.0631 90° East 462 532 26,800 -1,131 Descending Kansas City Center
Wed 05:19:29 PM 38.9228 -88.9161 89° East 452 520 25,800 -968 Descending Kansas City Center
Wed 05:20:33 PM 38.9217 -88.7578 90° East 448 516 24,800 -864 Descending Kansas City Center
Wed 05:21:34 PM 38.9239 -88.5989 89° East 440 506 24,000 -387 Descending Kansas City Center
Wed 05:22:37 PM 38.9253 -88.4475 89° East 428 493 24,000  Level Kansas City Center
Wed 05:23:02 PM 38.9350 -88.3608 82° East 419 482 24,000  Level Indianapolis Center
Wed 05:24:04 PM 38.9539 -88.2108 81° East 421 484 24,000  Level Indianapolis Center
Wed 05:25:06 PM 38.9725 -88.0625 81° East 419 482 24,000 -341 Level Indianapolis Center
Wed 05:26:07 PM 39.0094 -87.9142 72° East 438 504 23,300 -488 Descending Indianapolis Center
Wed 05:27:09 PM 39.0575 -87.7681 67° East 439 505 23,000 -629 Descending Indianapolis Center
Wed 05:28:11 PM 39.1044 -87.6250 67° East 437 503 22,000 -1,694 Descending Indianapolis Center
Wed 05:29:13 PM 39.1508 -87.4831 67° East 431 496 19,500 -2,468 Descending Indianapolis Center
Wed 05:30:15 PM 39.1983 -87.3386 67° East 432 497 16,900 -2,468 Descending Indianapolis Center
Wed 05:31:17 PM 39.2522 -87.1706 67° East 428 493 14,400 -2,129 Descending Indianapolis Center
Wed 05:32:19 PM 39.2928 -87.0428 68° East 412 474 12,500 -1,597 Descending Indianapolis Center
Wed 05:33:21 PM 39.3308 -86.9236 68° East 389 448 11,100 -871 Descending Indianapolis Center
Wed 05:34:23 PM 39.3664 -86.8147 67° East 362 417 10,700 -1,065 Descending Indianapolis Center
Wed 05:35:25 PM 39.4017 -86.7203 64° Northeast 326 375 8,900 -1,548 Descending Indianapolis Center
Wed 05:36:27 PM 39.4625 -86.6433 44° Northeast 311 358 7,500 -976 Descending Indianapolis Center
Wed 05:37:28 PM 39.5136 -86.5694 48° Northeast 295 339 6,900 -829 Descending Indianapolis Center
Wed 05:38:30 PM 39.5589 -86.5031 48° Northeast 269 310 5,800 -1,113 Descending Indianapolis Center
Wed 05:39:32 PM 39.6075 -86.4636 32° Northeast 248 285 4,600 -823 Descending Indianapolis Center
Wed 05:40:34 PM 39.5603 -86.4492 167° South 233 268 4,100 -608 Descending Indianapolis Center
Wed 05:42:10 PM 39.5167 -86.4833 211° Southwest 197 227 3,000 -423 Descending Indianapolis TRACON
Wed 05:43:10 PM 39.5667 -86.4833 360° North 207 238 3,000  Level Indianapolis TRACON
Wed 05:44:04 PM 39.6167 -86.4333 38° Northeast 197 227 3,000 -368 Level Indianapolis TRACON
Wed 05:45:04 PM 39.6500 -86.3833 49° Northeast 192 221 2,300 -789 Descending Indianapolis TRACON
Wed 05:45:58 PM 39.6833 -86.3500 38° Northeast 166 191 1,500 -889 Descending Indianapolis TRACON
Wed 05:47:00 PM 39.7167 -86.2833 142° Southeast  Level FlightAware Approximate
Wed 05:54:00 PM 39.7173 -86.2947 142° Southeast  Level Estimated

Login

Don't have an account? Register now (free) for customized features, flight alerts, and more!